sensor_id;sensor_type;location;lat;lon;timestamp;P1;durP1;ratioP1;P2;durP2;ratioP2
81912;SDS011;71377;50.698;7.164;2023-08-20T00:02:19;8.88;;;6.90;;
81912;SDS011;71377;50.698;7.164;2023-08-20T00:04:49;11.13;;;6.75;;
81912;SDS011;71377;50.698;7.164;2023-08-20T00:07:16;7.72;;;6.90;;
81912;SDS011;71377;50.698;7.164;2023-08-20T00:09:44;12.00;;;7.38;;
81912;SDS011;71377;50.698;7.164;2023-08-20T00:12:11;9.60;;;6.78;;
81912;SDS011;71377;50.698;7.164;2023-08-20T00:14:57;7.90;;;6.35;;
81912;SDS011;71377;50.698;7.164;2023-08-20T00:17:31;12.05;;;7.22;;
81912;SDS011;71377;50.698;7.164;2023-08-20T00:19:59;10.68;;;6.82;;
81912;SDS011;71377;50.698;7.164;2023-08-20T00:22:26;7.72;;;6.53;;
81912;SDS011;71377;50.698;7.164;2023-08-20T00:24:53;10.95;;;6.72;;
81912;SDS011;71377;50.698;7.164;2023-08-20T00:27:20;9.18;;;6.95;;
81912;SDS011;71377;50.698;7.164;2023-08-20T00:29:47;8.10;;;7.22;;
81912;SDS011;71377;50.698;7.164;2023-08-20T00:32:14;8.77;;;6.75;;
81912;SDS011;71377;50.698;7.164;2023-08-20T00:34:41;9.20;;;6.60;;
81912;SDS011;71377;50.698;7.164;2023-08-20T00:37:07;10.57;;;6.95;;
81912;SDS011;71377;50.698;7.164;2023-08-20T00:39:36;8.70;;;7.00;;
81912;SDS011;71377;50.698;7.164;2023-08-20T00:42:03;11.05;;;7.18;;
81912;SDS011;71377;50.698;7.164;2023-08-20T00:44:30;7.65;;;6.72;;
81912;SDS011;71377;50.698;7.164;2023-08-20T00:46:57;11.30;;;7.05;;
81912;SDS011;71377;50.698;7.164;2023-08-20T00:49:26;11.20;;;6.78;;
81912;SDS011;71377;50.698;7.164;2023-08-20T00:51:52;10.93;;;6.85;;
81912;SDS011;71377;50.698;7.164;2023-08-20T00:54:20;12.43;;;7.35;;
81912;SDS011;71377;50.698;7.164;2023-08-20T00:56:47;8.00;;;7.20;;
81912;SDS011;71377;50.698;7.164;2023-08-20T00:59:15;9.48;;;6.82;;
81912;SDS011;71377;50.698;7.164;2023-08-20T01:01:43;10.32;;;7.35;;
81912;SDS011;71377;50.698;7.164;2023-08-20T01:04:09;10.20;;;6.82;;
81912;SDS011;71377;50.698;7.164;2023-08-20T01:09:38;12.05;;;7.20;;
81912;SDS011;71377;50.698;7.164;2023-08-20T01:12:23;9.82;;;6.70;;
81912;SDS011;71377;50.698;7.164;2023-08-20T01:14:50;10.00;;;7.10;;
81912;SDS011;71377;50.698;7.164;2023-08-20T01:17:17;9.00;;;6.63;;
81912;SDS011;71377;50.698;7.164;2023-08-20T01:19:43;8.88;;;6.93;;
81912;SDS011;71377;50.698;7.164;2023-08-20T01:25:03;10.35;;;6.95;;
81912;SDS011;71377;50.698;7.164;2023-08-20T01:27:58;9.88;;;7.03;;
81912;SDS011;71377;50.698;7.164;2023-08-20T01:30:47;7.97;;;6.88;;
81912;SDS011;71377;50.698;7.164;2023-08-20T01:33:14;11.70;;;6.88;;
81912;SDS011;71377;50.698;7.164;2023-08-20T01:35:42;10.48;;;7.40;;
81912;SDS011;71377;50.698;7.164;2023-08-20T01:38:08;9.63;;;7.72;;
81912;SDS011;71377;50.698;7.164;2023-08-20T01:40:35;9.27;;;7.13;;
81912;SDS011;71377;50.698;7.164;2023-08-20T01:43:01;14.13;;;7.75;;
81912;SDS011;71377;50.698;7.164;2023-08-20T01:45:28;12.65;;;7.90;;
81912;SDS011;71377;50.698;7.164;2023-08-20T01:47:54;9.70;;;7.65;;
81912;SDS011;71377;50.698;7.164;2023-08-20T01:50:21;11.93;;;8.48;;
81912;SDS011;71377;50.698;7.164;2023-08-20T01:52:47;8.52;;;7.70;;
81912;SDS011;71377;50.698;7.164;2023-08-20T01:55:13;9.20;;;7.97;;
81912;SDS011;71377;50.698;7.164;2023-08-20T01:57:40;15.32;;;8.82;;
81912;SDS011;71377;50.698;7.164;2023-08-20T02:00:07;9.60;;;7.45;;
81912;SDS011;71377;50.698;7.164;2023-08-20T02:02:34;9.30;;;7.78;;
81912;SDS011;71377;50.698;7.164;2023-08-20T02:05:00;9.70;;;7.82;;
81912;SDS011;71377;50.698;7.164;2023-08-20T02:07:27;15.38;;;9.02;;
81912;SDS011;71377;50.698;7.164;2023-08-20T02:09:53;11.60;;;8.35;;
81912;SDS011;71377;50.698;7.164;2023-08-20T02:12:20;10.25;;;8.93;;
81912;SDS011;71377;50.698;7.164;2023-08-20T02:14:46;11.02;;;8.85;;
81912;SDS011;71377;50.698;7.164;2023-08-20T02:17:13;12.50;;;8.93;;
81912;SDS011;71377;50.698;7.164;2023-08-20T02:19:40;10.23;;;8.18;;
81912;SDS011;71377;50.698;7.164;2023-08-20T02:22:06;13.75;;;9.02;;
81912;SDS011;71377;50.698;7.164;2023-08-20T02:24:33;9.85;;;8.20;;
81912;SDS011;71377;50.698;7.164;2023-08-20T02:26:59;10.75;;;8.05;;
81912;SDS011;71377;50.698;7.164;2023-08-20T02:29:26;11.88;;;8.68;;
81912;SDS011;71377;50.698;7.164;2023-08-20T02:31:52;14.18;;;9.40;;
81912;SDS011;71377;50.698;7.164;2023-08-20T02:34:18;14.50;;;9.27;;
81912;SDS011;71377;50.698;7.164;2023-08-20T02:36:45;13.27;;;9.27;;
81912;SDS011;71377;50.698;7.164;2023-08-20T02:39:12;12.95;;;9.32;;
81912;SDS011;71377;50.698;7.164;2023-08-20T02:41:39;10.63;;;9.27;;
81912;SDS011;71377;50.698;7.164;2023-08-20T02:44:05;13.15;;;9.35;;
81912;SDS011;71377;50.698;7.164;2023-08-20T02:46:32;11.45;;;8.50;;
81912;SDS011;71377;50.698;7.164;2023-08-20T02:48:58;9.88;;;8.77;;
81912;SDS011;71377;50.698;7.164;2023-08-20T02:51:25;10.38;;;9.25;;
81912;SDS011;71377;50.698;7.164;2023-08-20T02:53:51;12.07;;;9.32;;
81912;SDS011;71377;50.698;7.164;2023-08-20T02:56:18;12.45;;;9.43;;
81912;SDS011;71377;50.698;7.164;2023-08-20T02:58:44;9.77;;;8.75;;
81912;SDS011;71377;50.698;7.164;2023-08-20T03:01:23;12.82;;;9.82;;
81912;SDS011;71377;50.698;7.164;2023-08-20T03:03:51;10.43;;;9.32;;
81912;SDS011;71377;50.698;7.164;2023-08-20T03:06:18;11.73;;;9.40;;
81912;SDS011;71377;50.698;7.164;2023-08-20T03:08:45;13.35;;;9.70;;
81912;SDS011;71377;50.698;7.164;2023-08-20T03:11:11;13.00;;;9.13;;
81912;SDS011;71377;50.698;7.164;2023-08-20T03:13:38;12.23;;;9.05;;
81912;SDS011;71377;50.698;7.164;2023-08-20T03:16:04;11.55;;;9.10;;
81912;SDS011;71377;50.698;7.164;2023-08-20T03:18:31;12.13;;;8.63;;
81912;SDS011;71377;50.698;7.164;2023-08-20T03:20:57;12.40;;;8.60;;
81912;SDS011;71377;50.698;7.164;2023-08-20T03:23:23;11.70;;;9.18;;
81912;SDS011;71377;50.698;7.164;2023-08-20T03:25:50;11.55;;;9.85;;
81912;SDS011;71377;50.698;7.164;2023-08-20T03:28:18;10.05;;;8.95;;
81912;SDS011;71377;50.698;7.164;2023-08-20T03:30:45;11.10;;;9.25;;
81912;SDS011;71377;50.698;7.164;2023-08-20T03:33:11;11.32;;;8.65;;
81912;SDS011;71377;50.698;7.164;2023-08-20T03:35:38;13.18;;;9.10;;
81912;SDS011;71377;50.698;7.164;2023-08-20T03:38:04;10.23;;;9.13;;
81912;SDS011;71377;50.698;7.164;2023-08-20T03:40:31;15.88;;;8.98;;
81912;SDS011;71377;50.698;7.164;2023-08-20T03:42:57;10.45;;;8.90;;
81912;SDS011;71377;50.698;7.164;2023-08-20T03:45:24;11.20;;;8.38;;
81912;SDS011;71377;50.698;7.164;2023-08-20T03:47:50;10.32;;;8.10;;
81912;SDS011;71377;50.698;7.164;2023-08-20T03:50:17;12.05;;;8.68;;
81912;SDS011;71377;50.698;7.164;2023-08-20T03:52:43;10.63;;;8.80;;
81912;SDS011;71377;50.698;7.164;2023-08-20T03:55:09;11.25;;;8.93;;
81912;SDS011;71377;50.698;7.164;2023-08-20T03:57:36;10.77;;;8.40;;
81912;SDS011;71377;50.698;7.164;2023-08-20T04:00:03;13.75;;;8.70;;
81912;SDS011;71377;50.698;7.164;2023-08-20T04:02:30;11.25;;;7.95;;
81912;SDS011;71377;50.698;7.164;2023-08-20T04:04:57;10.98;;;8.70;;
81912;SDS011;71377;50.698;7.164;2023-08-20T04:07:24;10.95;;;8.27;;
81912;SDS011;71377;50.698;7.164;2023-08-20T04:09:50;10.85;;;7.85;;
81912;SDS011;71377;50.698;7.164;2023-08-20T04:12:16;11.30;;;8.02;;
81912;SDS011;71377;50.698;7.164;2023-08-20T04:14:43;11.05;;;8.25;;
81912;SDS011;71377;50.698;7.164;2023-08-20T04:17:09;9.80;;;7.80;;
81912;SDS011;71377;50.698;7.164;2023-08-20T04:19:36;11.02;;;7.97;;
81912;SDS011;71377;50.698;7.164;2023-08-20T04:22:03;11.25;;;8.43;;
81912;SDS011;71377;50.698;7.164;2023-08-20T04:24:29;8.77;;;7.88;;
81912;SDS011;71377;50.698;7.164;2023-08-20T04:26:55;10.05;;;7.70;;
81912;SDS011;71377;50.698;7.164;2023-08-20T04:29:23;10.32;;;7.43;;
81912;SDS011;71377;50.698;7.164;2023-08-20T04:31:49;10.43;;;7.63;;
81912;SDS011;71377;50.698;7.164;2023-08-20T04:34:16;11.65;;;7.78;;
81912;SDS011;71377;50.698;7.164;2023-08-20T04:36:42;11.23;;;8.02;;
81912;SDS011;71377;50.698;7.164;2023-08-20T04:39:08;9.68;;;8.38;;
81912;SDS011;71377;50.698;7.164;2023-08-20T04:41:36;8.90;;;7.50;;
81912;SDS011;71377;50.698;7.164;2023-08-20T04:44:02;8.93;;;7.50;;
81912;SDS011;71377;50.698;7.164;2023-08-20T04:46:29;9.73;;;7.72;;
81912;SDS011;71377;50.698;7.164;2023-08-20T04:48:55;14.45;;;7.72;;
81912;SDS011;71377;50.698;7.164;2023-08-20T04:51:22;10.85;;;7.35;;
81912;SDS011;71377;50.698;7.164;2023-08-20T04:53:48;9.52;;;7.93;;
81912;SDS011;71377;50.698;7.164;2023-08-20T04:56:16;8.68;;;7.22;;
81912;SDS011;71377;50.698;7.164;2023-08-20T04:58:42;10.18;;;7.30;;
81912;SDS011;71377;50.698;7.164;2023-08-20T05:01:09;9.40;;;7.47;;
81912;SDS011;71377;50.698;7.164;2023-08-20T05:03:35;10.77;;;7.03;;
81912;SDS011;71377;50.698;7.164;2023-08-20T05:06:02;9.10;;;7.50;;
81912;SDS011;71377;50.698;7.164;2023-08-20T05:08:29;10.73;;;7.35;;
81912;SDS011;71377;50.698;7.164;2023-08-20T05:10:56;8.40;;;7.22;;
81912;SDS011;71377;50.698;7.164;2023-08-20T05:13:22;10.77;;;7.53;;
81912;SDS011;71377;50.698;7.164;2023-08-20T05:15:50;10.15;;;7.18;;
81912;SDS011;71377;50.698;7.164;2023-08-20T05:18:16;7.85;;;7.07;;
81912;SDS011;71377;50.698;7.164;2023-08-20T05:20:42;9.82;;;7.20;;
81912;SDS011;71377;50.698;7.164;2023-08-20T05:23:09;8.85;;;7.18;;
81912;SDS011;71377;50.698;7.164;2023-08-20T05:25:35;8.50;;;7.47;;
81912;SDS011;71377;50.698;7.164;2023-08-20T05:28:02;10.10;;;7.53;;
81912;SDS011;71377;50.698;7.164;2023-08-20T05:30:29;11.02;;;7.13;;
81912;SDS011;71377;50.698;7.164;2023-08-20T05:32:55;11.00;;;8.07;;
81912;SDS011;71377;50.698;7.164;2023-08-20T05:35:21;15.48;;;7.63;;
81912;SDS011;71377;50.698;7.164;2023-08-20T05:37:48;9.38;;;6.40;;
81912;SDS011;71377;50.698;7.164;2023-08-20T05:40:14;11.50;;;7.20;;
81912;SDS011;71377;50.698;7.164;2023-08-20T05:42:41;10.27;;;7.20;;
81912;SDS011;71377;50.698;7.164;2023-08-20T05:45:07;9.38;;;6.88;;
81912;SDS011;71377;50.698;7.164;2023-08-20T05:47:34;8.68;;;6.75;;
81912;SDS011;71377;50.698;7.164;2023-08-20T05:50:01;10.82;;;7.35;;
81912;SDS011;71377;50.698;7.164;2023-08-20T05:52:27;9.70;;;7.00;;
81912;SDS011;71377;50.698;7.164;2023-08-20T05:54:54;9.63;;;6.63;;
81912;SDS011;71377;50.698;7.164;2023-08-20T05:57:20;8.35;;;6.88;;
81912;SDS011;71377;50.698;7.164;2023-08-20T05:59:46;12.05;;;6.53;;
81912;SDS011;71377;50.698;7.164;2023-08-20T06:02:16;10.27;;;6.70;;
81912;SDS011;71377;50.698;7.164;2023-08-20T06:04:46;8.00;;;6.80;;
81912;SDS011;71377;50.698;7.164;2023-08-20T06:07:12;10.20;;;7.25;;
81912;SDS011;71377;50.698;7.164;2023-08-20T06:09:39;8.10;;;7.20;;
81912;SDS011;71377;50.698;7.164;2023-08-20T06:12:06;11.93;;;8.13;;
81912;SDS011;71377;50.698;7.164;2023-08-20T06:14:33;11.50;;;8.15;;
81912;SDS011;71377;50.698;7.164;2023-08-20T06:16:59;10.15;;;8.60;;
81912;SDS011;71377;50.698;7.164;2023-08-20T06:19:26;9.90;;;7.70;;
81912;SDS011;71377;50.698;7.164;2023-08-20T06:21:52;10.30;;;7.88;;
81912;SDS011;71377;50.698;7.164;2023-08-20T06:24:19;12.82;;;8.80;;
81912;SDS011;71377;50.698;7.164;2023-08-20T06:26:45;11.77;;;9.23;;
81912;SDS011;71377;50.698;7.164;2023-08-20T06:29:11;13.80;;;8.88;;
81912;SDS011;71377;50.698;7.164;2023-08-20T06:31:38;11.18;;;7.95;;
81912;SDS011;71377;50.698;7.164;2023-08-20T06:34:04;12.20;;;8.73;;
81912;SDS011;71377;50.698;7.164;2023-08-20T06:36:31;9.98;;;8.30;;
81912;SDS011;71377;50.698;7.164;2023-08-20T06:38:57;11.68;;;7.78;;
81912;SDS011;71377;50.698;7.164;2023-08-20T06:41:24;10.40;;;7.47;;
81912;SDS011;71377;50.698;7.164;2023-08-20T06:43:50;13.15;;;8.50;;
81912;SDS011;71377;50.698;7.164;2023-08-20T06:46:17;9.05;;;7.88;;
81912;SDS011;71377;50.698;7.164;2023-08-20T06:48:43;13.45;;;8.27;;
81912;SDS011;71377;50.698;7.164;2023-08-20T06:51:19;12.35;;;8.38;;
81912;SDS011;71377;50.698;7.164;2023-08-20T06:53:50;8.80;;;7.88;;
81912;SDS011;71377;50.698;7.164;2023-08-20T06:56:17;14.35;;;9.63;;
81912;SDS011;71377;50.698;7.164;2023-08-20T06:58:43;11.63;;;8.25;;
81912;SDS011;71377;50.698;7.164;2023-08-20T07:01:09;11.02;;;8.18;;
81912;SDS011;71377;50.698;7.164;2023-08-20T07:03:41;9.27;;;7.15;;
81912;SDS011;71377;50.698;7.164;2023-08-20T07:06:10;15.20;;;8.85;;
81912;SDS011;71377;50.698;7.164;2023-08-20T07:08:37;9.77;;;8.77;;
81912;SDS011;71377;50.698;7.164;2023-08-20T07:11:06;21.67;;;9.93;;
81912;SDS011;71377;50.698;7.164;2023-08-20T07:13:33;15.48;;;7.95;;
81912;SDS011;71377;50.698;7.164;2023-08-20T07:16:00;13.00;;;9.15;;
81912;SDS011;71377;50.698;7.164;2023-08-20T07:18:26;14.95;;;10.45;;
81912;SDS011;71377;50.698;7.164;2023-08-20T07:20:53;11.00;;;9.07;;
81912;SDS011;71377;50.698;7.164;2023-08-20T07:23:19;11.85;;;9.35;;
81912;SDS011;71377;50.698;7.164;2023-08-20T07:25:46;14.98;;;8.80;;
81912;SDS011;71377;50.698;7.164;2023-08-20T07:28:13;13.88;;;8.85;;
81912;SDS011;71377;50.698;7.164;2023-08-20T07:30:39;9.13;;;8.00;;
81912;SDS011;71377;50.698;7.164;2023-08-20T07:33:06;12.23;;;8.60;;
81912;SDS011;71377;50.698;7.164;2023-08-20T07:35:33;10.18;;;7.50;;
81912;SDS011;71377;50.698;7.164;2023-08-20T07:38:01;14.02;;;8.43;;
81912;SDS011;71377;50.698;7.164;2023-08-20T07:40:28;12.10;;;8.35;;
81912;SDS011;71377;50.698;7.164;2023-08-20T07:42:55;10.45;;;8.68;;
81912;SDS011;71377;50.698;7.164;2023-08-20T07:45:22;14.30;;;7.57;;
81912;SDS011;71377;50.698;7.164;2023-08-20T07:47:49;15.80;;;9.77;;
81912;SDS011;71377;50.698;7.164;2023-08-20T07:50:15;13.73;;;8.43;;
81912;SDS011;71377;50.698;7.164;2023-08-20T07:52:42;12.75;;;9.18;;
81912;SDS011;71377;50.698;7.164;2023-08-20T07:55:09;13.10;;;9.45;;
81912;SDS011;71377;50.698;7.164;2023-08-20T07:57:35;14.90;;;9.57;;
81912;SDS011;71377;50.698;7.164;2023-08-20T08:00:02;16.85;;;9.82;;
81912;SDS011;71377;50.698;7.164;2023-08-20T08:02:30;11.40;;;8.63;;
81912;SDS011;71377;50.698;7.164;2023-08-20T08:04:57;12.10;;;8.50;;
81912;SDS011;71377;50.698;7.164;2023-08-20T08:07:24;10.30;;;8.00;;
81912;SDS011;71377;50.698;7.164;2023-08-20T08:09:51;11.57;;;8.88;;
81912;SDS011;71377;50.698;7.164;2023-08-20T08:12:18;11.13;;;8.75;;
81912;SDS011;71377;50.698;7.164;2023-08-20T08:14:48;10.98;;;8.38;;
81912;SDS011;71377;50.698;7.164;2023-08-20T08:17:16;9.68;;;7.88;;
81912;SDS011;71377;50.698;7.164;2023-08-20T08:19:43;12.15;;;9.48;;
81912;SDS011;71377;50.698;7.164;2023-08-20T08:22:09;11.93;;;8.07;;
81912;SDS011;71377;50.698;7.164;2023-08-20T08:24:36;10.80;;;8.73;;
81912;SDS011;71377;50.698;7.164;2023-08-20T08:27:03;11.82;;;8.40;;
81912;SDS011;71377;50.698;7.164;2023-08-20T08:29:30;13.30;;;9.45;;
81912;SDS011;71377;50.698;7.164;2023-08-20T08:31:57;13.85;;;9.30;;
81912;SDS011;71377;50.698;7.164;2023-08-20T08:34:23;11.30;;;7.60;;
81912;SDS011;71377;50.698;7.164;2023-08-20T08:36:50;10.02;;;8.35;;
81912;SDS011;71377;50.698;7.164;2023-08-20T08:39:16;9.57;;;8.15;;
81912;SDS011;71377;50.698;7.164;2023-08-20T08:41:42;9.35;;;6.82;;
81912;SDS011;71377;50.698;7.164;2023-08-20T08:44:09;10.80;;;7.13;;
81912;SDS011;71377;50.698;7.164;2023-08-20T08:46:37;7.05;;;6.30;;
81912;SDS011;71377;50.698;7.164;2023-08-20T08:49:05;7.97;;;5.60;;
81912;SDS011;71377;50.698;7.164;2023-08-20T08:51:32;8.60;;;5.53;;
81912;SDS011;71377;50.698;7.164;2023-08-20T08:54:00;7.07;;;6.00;;
81912;SDS011;71377;50.698;7.164;2023-08-20T08:56:28;9.80;;;6.07;;
81912;SDS011;71377;50.698;7.164;2023-08-20T08:58:55;6.50;;;5.75;;
81912;SDS011;71377;50.698;7.164;2023-08-20T09:01:21;10.98;;;7.32;;
81912;SDS011;71377;50.698;7.164;2023-08-20T09:03:48;12.68;;;6.88;;
81912;SDS011;71377;50.698;7.164;2023-08-20T09:06:15;7.95;;;6.05;;
81912;SDS011;71377;50.698;7.164;2023-08-20T09:08:42;10.10;;;6.80;;
81912;SDS011;71377;50.698;7.164;2023-08-20T09:11:09;9.18;;;6.85;;
81912;SDS011;71377;50.698;7.164;2023-08-20T09:13:36;11.18;;;6.55;;
81912;SDS011;71377;50.698;7.164;2023-08-20T09:16:13;7.30;;;6.30;;
81912;SDS011;71377;50.698;7.164;2023-08-20T09:18:41;8.00;;;6.00;;
81912;SDS011;71377;50.698;7.164;2023-08-20T09:21:11;9.68;;;5.55;;
81912;SDS011;71377;50.698;7.164;2023-08-20T09:23:39;7.18;;;5.55;;
81912;SDS011;71377;50.698;7.164;2023-08-20T09:26:06;6.53;;;5.13;;
81912;SDS011;71377;50.698;7.164;2023-08-20T09:28:40;7.47;;;4.65;;
81912;SDS011;71377;50.698;7.164;2023-08-20T09:33:37;6.50;;;5.03;;
81912;SDS011;71377;50.698;7.164;2023-08-20T09:36:14;6.40;;;5.30;;
81912;SDS011;71377;50.698;7.164;2023-08-20T09:38:41;7.82;;;5.20;;
81912;SDS011;71377;50.698;7.164;2023-08-20T09:41:08;7.07;;;4.50;;
81912;SDS011;71377;50.698;7.164;2023-08-20T09:43:37;7.45;;;5.30;;
81912;SDS011;71377;50.698;7.164;2023-08-20T09:46:05;6.07;;;4.25;;
81912;SDS011;71377;50.698;7.164;2023-08-20T09:48:36;4.60;;;3.70;;
81912;SDS011;71377;50.698;7.164;2023-08-20T09:51:05;5.00;;;3.42;;
81912;SDS011;71377;50.698;7.164;2023-08-20T09:54:00;4.28;;;3.88;;
81912;SDS011;71377;50.698;7.164;2023-08-20T09:56:38;5.75;;;3.58;;
81912;SDS011;71377;50.698;7.164;2023-08-20T09:59:06;5.05;;;4.00;;
81912;SDS011;71377;50.698;7.164;2023-08-20T10:01:34;6.15;;;3.90;;
81912;SDS011;71377;50.698;7.164;2023-08-20T10:04:02;5.65;;;3.90;;
81912;SDS011;71377;50.698;7.164;2023-08-20T10:06:29;6.45;;;4.60;;
81912;SDS011;71377;50.698;7.164;2023-08-20T10:08:58;4.97;;;4.22;;
81912;SDS011;71377;50.698;7.164;2023-08-20T10:11:25;4.75;;;4.10;;
81912;SDS011;71377;50.698;7.164;2023-08-20T10:13:52;5.18;;;4.03;;
81912;SDS011;71377;50.698;7.164;2023-08-20T10:16:20;4.32;;;3.90;;
81912;SDS011;71377;50.698;7.164;2023-08-20T10:18:49;5.57;;;4.28;;
81912;SDS011;71377;50.698;7.164;2023-08-20T10:21:16;7.07;;;4.25;;
81912;SDS011;71377;50.698;7.164;2023-08-20T10:23:47;5.70;;;3.67;;
81912;SDS011;71377;50.698;7.164;2023-08-20T10:26:15;6.35;;;4.43;;
81912;SDS011;71377;50.698;7.164;2023-08-20T10:28:42;6.15;;;4.70;;
81912;SDS011;71377;50.698;7.164;2023-08-20T10:31:12;6.65;;;4.47;;
81912;SDS011;71377;50.698;7.164;2023-08-20T10:33:55;5.05;;;4.30;;
81912;SDS011;71377;50.698;7.164;2023-08-20T10:36:23;5.10;;;4.10;;
81912;SDS011;71377;50.698;7.164;2023-08-20T10:38:56;5.28;;;4.07;;
81912;SDS011;71377;50.698;7.164;2023-08-20T10:41:30;5.65;;;3.90;;
81912;SDS011;71377;50.698;7.164;2023-08-20T10:43:58;6.97;;;3.85;;
81912;SDS011;71377;50.698;7.164;2023-08-20T10:46:27;5.53;;;4.22;;
81912;SDS011;71377;50.698;7.164;2023-08-20T10:49:01;5.53;;;4.20;;
81912;SDS011;71377;50.698;7.164;2023-08-20T10:51:38;5.32;;;4.30;;
81912;SDS011;71377;50.698;7.164;2023-08-20T10:54:07;5.10;;;4.47;;
81912;SDS011;71377;50.698;7.164;2023-08-20T10:59:21;7.93;;;3.63;;
81912;SDS011;71377;50.698;7.164;2023-08-20T11:01:50;4.22;;;3.50;;
81912;SDS011;71377;50.698;7.164;2023-08-20T11:04:21;4.10;;;3.70;;
81912;SDS011;71377;50.698;7.164;2023-08-20T11:06:53;5.38;;;3.95;;
81912;SDS011;71377;50.698;7.164;2023-08-20T11:09:24;5.03;;;4.30;;
81912;SDS011;71377;50.698;7.164;2023-08-20T11:11:51;5.30;;;3.95;;
81912;SDS011;71377;50.698;7.164;2023-08-20T11:14:19;4.18;;;3.53;;
81912;SDS011;71377;50.698;7.164;2023-08-20T11:16:46;4.38;;;3.67;;
81912;SDS011;71377;50.698;7.164;2023-08-20T11:19:13;5.32;;;3.60;;
81912;SDS011;71377;50.698;7.164;2023-08-20T11:21:41;3.80;;;3.40;;
81912;SDS011;71377;50.698;7.164;2023-08-20T11:24:08;4.63;;;3.58;;
81912;SDS011;71377;50.698;7.164;2023-08-20T11:26:37;3.78;;;3.03;;
81912;SDS011;71377;50.698;7.164;2023-08-20T11:29:06;5.05;;;3.45;;
81912;SDS011;71377;50.698;7.164;2023-08-20T11:31:36;4.50;;;3.30;;
81912;SDS011;71377;50.698;7.164;2023-08-20T11:34:03;3.97;;;3.10;;
81912;SDS011;71377;50.698;7.164;2023-08-20T11:36:31;6.95;;;3.58;;
81912;SDS011;71377;50.698;7.164;2023-08-20T11:38:57;4.35;;;3.42;;
81912;SDS011;71377;50.698;7.164;2023-08-20T11:41:24;5.60;;;4.07;;
81912;SDS011;71377;50.698;7.164;2023-08-20T11:43:52;5.60;;;4.10;;
81912;SDS011;71377;50.698;7.164;2023-08-20T11:46:20;5.22;;;4.15;;
81912;SDS011;71377;50.698;7.164;2023-08-20T11:48:58;6.22;;;4.22;;
81912;SDS011;71377;50.698;7.164;2023-08-20T11:54:07;6.03;;;3.92;;
81912;SDS011;71377;50.698;7.164;2023-08-20T11:56:35;5.15;;;3.83;;
81912;SDS011;71377;50.698;7.164;2023-08-20T11:59:01;5.40;;;3.50;;
81912;SDS011;71377;50.698;7.164;2023-08-20T12:01:32;5.57;;;3.72;;
81912;SDS011;71377;50.698;7.164;2023-08-20T12:04:05;5.53;;;4.07;;
81912;SDS011;71377;50.698;7.164;2023-08-20T12:06:36;3.92;;;3.53;;
81912;SDS011;71377;50.698;7.164;2023-08-20T12:09:25;4.15;;;3.75;;
81912;SDS011;71377;50.698;7.164;2023-08-20T12:11:54;4.50;;;3.58;;
81912;SDS011;71377;50.698;7.164;2023-08-20T12:16:51;4.40;;;3.50;;
81912;SDS011;71377;50.698;7.164;2023-08-20T12:19:19;4.15;;;3.75;;
81912;SDS011;71377;50.698;7.164;2023-08-20T12:21:45;4.18;;;3.70;;
81912;SDS011;71377;50.698;7.164;2023-08-20T12:24:12;6.15;;;3.92;;
81912;SDS011;71377;50.698;7.164;2023-08-20T12:26:39;4.35;;;3.85;;
81912;SDS011;71377;50.698;7.164;2023-08-20T12:29:06;4.20;;;3.72;;
81912;SDS011;71377;50.698;7.164;2023-08-20T12:31:33;5.13;;;3.53;;
81912;SDS011;71377;50.698;7.164;2023-08-20T12:34:00;4.35;;;3.33;;
81912;SDS011;71377;50.698;7.164;2023-08-20T12:36:28;4.75;;;3.40;;
81912;SDS011;71377;50.698;7.164;2023-08-20T12:38:55;6.30;;;3.88;;
81912;SDS011;71377;50.698;7.164;2023-08-20T12:41:23;5.45;;;3.47;;
81912;SDS011;71377;50.698;7.164;2023-08-20T12:43:49;4.95;;;3.47;;
81912;SDS011;71377;50.698;7.164;2023-08-20T12:46:16;4.32;;;3.30;;
81912;SDS011;71377;50.698;7.164;2023-08-20T12:48:43;3.70;;;3.40;;
81912;SDS011;71377;50.698;7.164;2023-08-20T12:51:10;4.13;;;3.45;;
81912;SDS011;71377;50.698;7.164;2023-08-20T12:53:40;4.47;;;3.38;;
81912;SDS011;71377;50.698;7.164;2023-08-20T12:56:07;4.82;;;3.35;;
81912;SDS011;71377;50.698;7.164;2023-08-20T12:58:33;6.45;;;3.55;;
81912;SDS011;71377;50.698;7.164;2023-08-20T13:01:00;4.40;;;3.65;;
81912;SDS011;71377;50.698;7.164;2023-08-20T13:03:27;4.38;;;3.67;;
81912;SDS011;71377;50.698;7.164;2023-08-20T13:05:55;4.47;;;3.70;;
81912;SDS011;71377;50.698;7.164;2023-08-20T13:08:25;5.63;;;3.70;;
81912;SDS011;71377;50.698;7.164;2023-08-20T13:10:55;5.88;;;3.63;;
81912;SDS011;71377;50.698;7.164;2023-08-20T13:13:24;4.72;;;4.10;;
81912;SDS011;71377;50.698;7.164;2023-08-20T13:15:51;4.65;;;4.15;;
81912;SDS011;71377;50.698;7.164;2023-08-20T13:18:20;5.20;;;4.00;;
81912;SDS011;71377;50.698;7.164;2023-08-20T13:20:54;4.18;;;3.70;;
81912;SDS011;71377;50.698;7.164;2023-08-20T13:23:20;4.72;;;3.90;;
81912;SDS011;71377;50.698;7.164;2023-08-20T13:25:47;3.72;;;3.42;;
81912;SDS011;71377;50.698;7.164;2023-08-20T13:28:13;3.95;;;3.60;;
81912;SDS011;71377;50.698;7.164;2023-08-20T13:30:41;7.05;;;3.63;;
81912;SDS011;71377;50.698;7.164;2023-08-20T13:33:07;4.88;;;3.53;;
81912;SDS011;71377;50.698;7.164;2023-08-20T13:35:34;3.83;;;3.30;;
81912;SDS011;71377;50.698;7.164;2023-08-20T13:38:02;5.13;;;3.65;;
81912;SDS011;71377;50.698;7.164;2023-08-20T13:40:30;12.13;;;4.13;;
81912;SDS011;71377;50.698;7.164;2023-08-20T13:42:57;4.78;;;4.13;;
81912;SDS011;71377;50.698;7.164;2023-08-20T13:45:23;5.38;;;4.15;;
81912;SDS011;71377;50.698;7.164;2023-08-20T13:47:49;5.10;;;4.60;;
81912;SDS011;71377;50.698;7.164;2023-08-20T13:50:17;5.30;;;4.68;;
81912;SDS011;71377;50.698;7.164;2023-08-20T13:52:43;5.35;;;4.43;;
81912;SDS011;71377;50.698;7.164;2023-08-20T13:55:10;5.78;;;4.70;;
81912;SDS011;71377;50.698;7.164;2023-08-20T13:57:36;6.03;;;4.55;;
81912;SDS011;71377;50.698;7.164;2023-08-20T14:00:03;4.45;;;4.05;;
81912;SDS011;71377;50.698;7.164;2023-08-20T14:02:35;6.13;;;4.45;;
81912;SDS011;71377;50.698;7.164;2023-08-20T14:05:02;4.95;;;4.15;;
81912;SDS011;71377;50.698;7.164;2023-08-20T14:07:30;4.95;;;4.03;;
81912;SDS011;71377;50.698;7.164;2023-08-20T14:09:58;6.20;;;4.40;;
81912;SDS011;71377;50.698;7.164;2023-08-20T14:12:25;5.07;;;4.50;;
81912;SDS011;71377;50.698;7.164;2023-08-20T14:14:53;4.55;;;4.15;;
81912;SDS011;71377;50.698;7.164;2023-08-20T14:17:19;6.75;;;4.25;;
81912;SDS011;71377;50.698;7.164;2023-08-20T14:19:45;6.57;;;4.03;;
81912;SDS011;71377;50.698;7.164;2023-08-20T14:22:13;5.30;;;4.22;;
81912;SDS011;71377;50.698;7.164;2023-08-20T14:24:39;6.20;;;4.03;;
81912;SDS011;71377;50.698;7.164;2023-08-20T14:27:06;5.70;;;4.10;;
81912;SDS011;71377;50.698;7.164;2023-08-20T14:29:35;5.68;;;3.97;;
81912;SDS011;71377;50.698;7.164;2023-08-20T14:32:02;6.68;;;4.10;;
81912;SDS011;71377;50.698;7.164;2023-08-20T14:34:29;7.22;;;4.30;;
81912;SDS011;71377;50.698;7.164;2023-08-20T14:36:55;4.28;;;3.90;;
81912;SDS011;71377;50.698;7.164;2023-08-20T14:39:22;4.10;;;3.78;;
81912;SDS011;71377;50.698;7.164;2023-08-20T14:41:49;4.60;;;4.10;;
81912;SDS011;71377;50.698;7.164;2023-08-20T14:44:16;5.22;;;4.10;;
81912;SDS011;71377;50.698;7.164;2023-08-20T14:46:42;6.00;;;4.50;;
81912;SDS011;71377;50.698;7.164;2023-08-20T14:49:08;7.18;;;4.43;;
81912;SDS011;71377;50.698;7.164;2023-08-20T14:51:35;6.18;;;4.38;;
81912;SDS011;71377;50.698;7.164;2023-08-20T14:54:01;4.95;;;4.35;;
81912;SDS011;71377;50.698;7.164;2023-08-20T14:56:29;6.55;;;4.65;;
81912;SDS011;71377;50.698;7.164;2023-08-20T14:58:57;4.57;;;3.95;;
81912;SDS011;71377;50.698;7.164;2023-08-20T15:01:23;5.55;;;4.10;;
81912;SDS011;71377;50.698;7.164;2023-08-20T15:03:50;9.25;;;4.57;;